createdAt,value
2023-07-06T00:01:07.625Z,98756.66
2023-07-06T00:03:37.833Z,98754.78
2023-07-06T00:06:10.508Z,98750.50
2023-07-06T00:08:38.762Z,98753.09
2023-07-06T00:11:08.221Z,98753.91
2023-07-06T00:13:34.807Z,98756.97
2023-07-06T00:16:01.699Z,98755.25
2023-07-06T00:18:28.319Z,98764.31
2023-07-06T00:20:58.827Z,98763.47
2023-07-06T00:23:25.484Z,98766.13
2023-07-06T00:25:52.064Z,98770.56
2023-07-06T00:28:26.966Z,98775.78
2023-07-06T00:30:56.309Z,98765.88
2023-07-06T00:33:24.657Z,98773.97
2023-07-06T00:35:51.411Z,98774.81
2023-07-06T00:38:22.963Z,98780.16
2023-07-06T00:40:52.886Z,98782.78
2023-07-06T00:43:25.356Z,98782.78
2023-07-06T00:45:57.758Z,98782.78
2023-07-06T00:48:36.060Z,98777.44
2023-07-06T00:51:09.253Z,98785.56
2023-07-06T00:53:39.802Z,98782.94
2023-07-06T00:56:09.400Z,98781.97
2023-07-06T00:58:41.839Z,98777.44
2023-07-06T01:01:13.914Z,98783.41
2023-07-06T01:03:47.679Z,98784.31
2023-07-06T01:06:27.192Z,98785.19
2023-07-06T01:08:57.503Z,98778.09
2023-07-06T01:11:27.927Z,98771.88
2023-07-06T01:14:00.634Z,98773.81
2023-07-06T01:16:53.608Z,98767.69
2023-07-06T01:19:22.830Z,98764.88
2023-07-06T01:22:14.208Z,98764.78
2023-07-06T01:25:18.990Z,98767.41
2023-07-06T01:28:04.264Z,98765.88
2023-07-06T01:30:59.359Z,98764.13
2023-07-06T01:33:40.372Z,98774.78
2023-07-06T01:36:22.816Z,98772.88
2023-07-06T01:38:49.416Z,98764.91
2023-07-06T01:41:29.399Z,98775.56
2023-07-06T01:44:02.205Z,98778.25
2023-07-06T01:46:29.464Z,98771.97
2023-07-06T01:48:56.611Z,98770.09
2023-07-06T01:51:36.542Z,98771.09
2023-07-06T01:54:17.148Z,98770.19
2023-07-06T01:57:03.582Z,98771.09
2023-07-06T01:59:33.375Z,98763.16
2023-07-06T02:02:08.322Z,98760.63
2023-07-06T02:04:44.356Z,98770.44
2023-07-06T02:07:13.030Z,98774.97
2023-07-06T02:09:47.926Z,98774.91
2023-07-06T02:12:15.007Z,98773.06
2023-07-06T02:14:42.782Z,98778.47
2023-07-06T02:17:13.119Z,98778.50
2023-07-06T02:19:48.485Z,98778.59
2023-07-06T02:22:14.980Z,98783.03
2023-07-06T02:24:41.647Z,98776.81
2023-07-06T02:27:11.122Z,98783.09
2023-07-06T02:29:39.937Z,98785.97
2023-07-06T02:32:10.785Z,98786.06
2023-07-06T02:34:37.406Z,98777.31
2023-07-06T02:37:04.467Z,98783.59
2023-07-06T02:39:31.228Z,98786.38
2023-07-06T02:41:58.061Z,98780.25
2023-07-06T02:44:25.628Z,98782.84
2023-07-06T02:46:53.045Z,98778.50
2023-07-06T02:49:19.702Z,98785.69
2023-07-06T02:51:47.613Z,98792.09
2023-07-06T02:54:16.552Z,98797.56
2023-07-06T02:56:43.810Z,98797.66
2023-07-06T02:59:11.884Z,98798.56
2023-07-06T03:01:38.643Z,98802.94
2023-07-06T03:04:10.439Z,98803.16
2023-07-06T03:06:40.387Z,98800.47
2023-07-06T03:09:10.361Z,98798.41
2023-07-06T03:11:37.809Z,98800.31
2023-07-06T03:14:05.132Z,98802.91
2023-07-06T03:16:41.469Z,98803.97
2023-07-06T03:19:14.177Z,98806.63
2023-07-06T03:21:40.816Z,98805.78
2023-07-06T03:24:08.910Z,98805.75
2023-07-06T03:26:37.993Z,98806.59
2023-07-06T03:29:06.121Z,98814.53
2023-07-06T03:31:33.854Z,98810.19
2023-07-06T03:34:07.285Z,98817.41
2023-07-06T03:36:35.074Z,98817.44
2023-07-06T03:39:02.585Z,98812.94
2023-07-06T03:41:29.319Z,98813.91
2023-07-06T03:43:59.867Z,98817.41
2023-07-06T03:46:35.882Z,98825.41
2023-07-06T03:49:08.441Z,98816.44
2023-07-06T03:51:35.029Z,98823.53
2023-07-06T03:54:07.723Z,98830.63
2023-07-06T03:56:35.186Z,98823.53
2023-07-06T03:59:02.252Z,98831.69
2023-07-06T04:01:32.521Z,98832.44
2023-07-06T04:03:59.837Z,98831.50
2023-07-06T04:06:28.412Z,98835.91
2023-07-06T04:08:57.978Z,98826.09
2023-07-06T04:11:25.551Z,98837.63
2023-07-06T04:14:00.166Z,98835.88
2023-07-06T04:16:27.920Z,98835.84
2023-07-06T04:18:54.478Z,98844.72
2023-07-06T04:21:21.066Z,98843.81
2023-07-06T04:23:50.858Z,98842.94
2023-07-06T04:26:20.398Z,98850.78
2023-07-06T04:28:48.831Z,98845.38
2023-07-06T04:31:18.499Z,98853.19
2023-07-06T04:33:47.498Z,98853.97
2023-07-06T04:36:21.069Z,98852.97
2023-07-06T04:38:47.733Z,98849.25
2023-07-06T04:41:14.670Z,98848.16
2023-07-06T04:43:41.210Z,98852.47
2023-07-06T04:46:09.758Z,98846.28
2023-07-06T04:48:37.355Z,98847.94
2023-07-06T04:51:04.875Z,98845.06
2023-07-06T04:53:33.890Z,98851.22
2023-07-06T04:56:01.415Z,98859.91
2023-07-06T04:58:30.096Z,98865.13
2023-07-06T05:00:58.051Z,98859.66
2023-07-06T05:03:24.845Z,98861.38
2023-07-06T05:05:51.402Z,98860.50
2023-07-06T05:08:21.118Z,98863.22
2023-07-06T05:10:52.776Z,98856.97
2023-07-06T05:13:20.848Z,98855.13
2023-07-06T05:15:49.711Z,98860.34
2023-07-06T05:18:19.641Z,98866.72
2023-07-06T05:20:49.639Z,98864.03
2023-07-06T05:23:16.612Z,98867.59
2023-07-06T05:25:43.094Z,98866.72
2023-07-06T05:28:12.117Z,98869.34
2023-07-06T05:30:44.107Z,98868.75
2023-07-06T05:33:10.726Z,98871.56
2023-07-06T05:35:37.239Z,98880.44
2023-07-06T05:38:03.819Z,98885.69
2023-07-06T05:40:30.393Z,98877.41
2023-07-06T05:42:57.048Z,98888.25
2023-07-06T05:45:23.690Z,98883.50
2023-07-06T05:47:50.288Z,98889.63
2023-07-06T05:50:17.073Z,98894.91
2023-07-06T05:52:43.640Z,98895.84
2023-07-06T05:55:10.678Z,98904.72
2023-07-06T05:57:37.326Z,98910.97
2023-07-06T06:00:10.862Z,98902.06
2023-07-06T06:02:41.135Z,98915.38
2023-07-06T06:05:08.551Z,98913.56
2023-07-06T06:07:35.037Z,98917.00
2023-07-06T06:10:05.432Z,98921.38
2023-07-06T06:12:33.067Z,98916.03
2023-07-06T06:15:00.261Z,98916.91
2023-07-06T06:17:29.716Z,98929.38
2023-07-06T06:19:56.806Z,98925.81
2023-07-06T06:22:23.921Z,98931.94
2023-07-06T06:24:50.584Z,98934.47
2023-07-06T06:27:18.790Z,98936.41
2023-07-06T06:29:45.596Z,98944.25
2023-07-06T06:32:14.040Z,98946.72
2023-07-06T06:34:46.224Z,98951.19
2023-07-06T06:37:12.730Z,98944.88
2023-07-06T06:39:40.878Z,98949.16
2023-07-06T06:42:09.020Z,98954.53
2023-07-06T06:44:36.646Z,98963.50
2023-07-06T06:47:05.409Z,98966.09
2023-07-06T06:49:36.219Z,98967.69
2023-07-06T06:52:05.871Z,98963.88
2023-07-06T06:54:34.061Z,98963.81
2023-07-06T06:57:02.042Z,98970.09
2023-07-06T06:59:28.662Z,98971.09
2023-07-06T07:01:56.217Z,98973.75
2023-07-06T07:04:22.990Z,98967.41
2023-07-06T07:06:49.565Z,98966.50
2023-07-06T07:09:16.225Z,98973.28
2023-07-06T07:11:42.800Z,98982.22
2023-07-06T07:14:14.639Z,98967.94
2023-07-06T07:16:44.661Z,98969.53
2023-07-06T07:19:11.386Z,98976.63
2023-07-06T07:21:37.905Z,98973.16
2023-07-06T07:24:04.792Z,98968.59
2023-07-06T07:26:31.974Z,98977.44
2023-07-06T07:28:59.005Z,98983.59
2023-07-06T07:31:26.520Z,98973.25
2023-07-06T07:33:53.098Z,98979.25
2023-07-06T07:36:20.963Z,98979.28
2023-07-06T07:38:49.463Z,98977.03
2023-07-06T07:41:20.360Z,98989.53
2023-07-06T07:43:49.407Z,98993.53
2023-07-06T07:46:18.088Z,98986.34
2023-07-06T07:48:48.266Z,98990.81
2023-07-06T07:51:20.636Z,98988.91
2023-07-06T07:53:47.178Z,98990.28
2023-07-06T07:56:16.796Z,98988.72
2023-07-06T07:58:48.446Z,98983.44
2023-07-06T08:01:23.664Z,98991.31
2023-07-06T08:03:51.248Z,99003.38
2023-07-06T08:06:20.273Z,98996.69
2023-07-06T08:08:49.397Z,98996.50
2023-07-06T08:11:22.030Z,98999.00
2023-07-06T08:13:54.661Z,99006.38
2023-07-06T08:16:22.956Z,99000.38
2023-07-06T08:18:54.498Z,99011.41
2023-07-06T08:21:45.618Z,98998.28
2023-07-06T08:24:12.915Z,98996.78
2023-07-06T08:26:39.502Z,99000.00
2023-07-06T08:29:06.048Z,99007.28
2023-07-06T08:31:34.013Z,99004.53
2023-07-06T08:34:01.822Z,99004.28
2023-07-06T08:36:28.659Z,98994.81
2023-07-06T08:38:58.093Z,98998.34
2023-07-06T08:41:31.576Z,99014.53
2023-07-06T08:44:00.884Z,99004.72
2023-07-06T08:46:36.242Z,99002.59
2023-07-06T08:49:06.592Z,99007.81
2023-07-06T08:51:36.617Z,99010.91
2023-07-06T08:54:11.885Z,99020.38
2023-07-06T08:56:38.895Z,99015.47
2023-07-06T08:59:23.346Z,99020.06
2023-07-06T09:01:50.606Z,99013.22
2023-07-06T09:04:24.740Z,99008.06
2023-07-06T09:06:56.099Z,99011.84
2023-07-06T09:09:22.713Z,99019.72
2023-07-06T09:11:51.538Z,99018.69
2023-07-06T09:14:21.155Z,98998.31
2023-07-06T09:16:56.578Z,98998.47
2023-07-06T09:19:26.090Z,99013.56
2023-07-06T09:21:59.328Z,99016.19
2023-07-06T09:24:29.095Z,99011.91
2023-07-06T09:27:00.088Z,99014.06
2023-07-06T09:29:31.454Z,99009.88
2023-07-06T09:32:18.425Z,99005.59
2023-07-06T09:34:47.799Z,99001.13
2023-07-06T09:37:15.812Z,99000.91
2023-07-06T09:39:56.655Z,99002.06
2023-07-06T09:42:24.075Z,99006.56
2023-07-06T13:58:38.204Z,99060.00
2023-07-06T14:01:04.748Z,99057.59
2023-07-06T14:03:33.075Z,99063.13
2023-07-06T14:05:59.926Z,99059.06
2023-07-06T14:08:26.741Z,99064.00
2023-07-06T14:10:56.326Z,99062.00
2023-07-06T14:13:25.120Z,99058.50
2023-07-06T14:15:55.385Z,99065.66
2023-07-06T14:18:24.200Z,99062.44
2023-07-06T14:20:53.081Z,99066.75
2023-07-06T14:23:20.532Z,99065.69
2023-07-06T14:25:48.296Z,99064.56
2023-07-06T14:28:20.163Z,99064.06
2023-07-06T14:30:50.271Z,99069.75
2023-07-06T14:33:21.064Z,99058.94
2023-07-06T14:35:47.898Z,99056.19
2023-07-06T14:38:14.918Z,99062.09
2023-07-06T14:40:41.403Z,99066.06
2023-07-06T14:43:08.288Z,99065.50
2023-07-06T14:45:36.424Z,99067.34
2023-07-06T14:48:03.716Z,99073.19
2023-07-06T14:50:30.287Z,99069.53
2023-07-06T14:52:57.398Z,99070.41
2023-07-06T14:55:25.311Z,99066.88
2023-07-06T14:57:52.717Z,99074.31
2023-07-06T15:00:20.064Z,99069.72
2023-07-06T15:02:50.872Z,99077.34
2023-07-06T15:05:17.765Z,99073.81
2023-07-06T15:07:44.361Z,99067.66
2023-07-06T15:10:11.372Z,99080.13
2023-07-06T15:12:41.619Z,99072.19
2023-07-06T15:15:10.484Z,99070.88
2023-07-06T15:17:37.146Z,99078.22
2023-07-06T15:20:05.101Z,99073.28
2023-07-06T15:22:31.859Z,99065.63
2023-07-06T15:25:00.817Z,99064.41
2023-07-06T15:27:27.412Z,99060.66
2023-07-06T15:29:53.976Z,99060.53
2023-07-06T15:32:21.770Z,99065.84
2023-07-06T15:34:59.938Z,99062.06
2023-07-06T15:37:28.747Z,99061.91
2023-07-06T15:39:58.114Z,99060.91
2023-07-06T15:42:25.192Z,99055.50
2023-07-06T15:44:51.844Z,99055.63
2023-07-06T15:47:18.447Z,99060.47
2023-07-06T15:49:45.056Z,99055.97
2023-07-06T15:52:11.802Z,99062.53
2023-07-06T15:54:38.362Z,99055.44
2023-07-06T15:57:05.163Z,99053.63
2023-07-06T15:59:31.710Z,99054.50
2023-07-06T16:01:59.193Z,99047.44
2023-07-06T16:04:25.986Z,99053.25
2023-07-06T16:06:52.589Z,99050.13
2023-07-06T16:09:19.145Z,99049.94
2023-07-06T16:11:45.830Z,99051.56
2023-07-06T16:14:17.958Z,99049.44
2023-07-06T16:16:46.596Z,99047.81
2023-07-06T16:19:14.951Z,99049.38
2023-07-06T16:21:41.673Z,99055.13
2023-07-06T16:24:08.803Z,99051.13
2023-07-06T16:26:35.415Z,99051.56
2023-07-06T16:29:02.367Z,99046.97
2023-07-06T16:31:32.710Z,99049.50
2023-07-06T16:33:59.816Z,99056.75
2023-07-06T16:36:26.594Z,99056.13
2023-07-06T16:38:53.249Z,99050.31
2023-07-06T16:41:20.403Z,99052.16
2023-07-06T16:43:47.078Z,99042.50
2023-07-06T16:46:15.227Z,99047.75
2023-07-06T16:48:42.153Z,99050.13
2023-07-06T16:51:09.303Z,99051.38
2023-07-06T16:53:36.032Z,99056.91
2023-07-06T16:56:02.884Z,99053.94
2023-07-06T16:58:30.326Z,99050.25
2023-07-06T17:00:59.094Z,99047.00
2023-07-06T17:03:28.456Z,99049.50
2023-07-06T17:05:56.534Z,99053.69
2023-07-06T17:08:23.294Z,99052.59
2023-07-06T17:10:50.504Z,99048.50
2023-07-06T17:13:17.528Z,99053.13
2023-07-06T17:15:48.310Z,99060.91
2023-07-06T17:18:14.841Z,99054.00
2023-07-06T17:20:41.444Z,99059.72
2023-07-06T17:23:07.927Z,99054.81
2023-07-06T17:25:34.471Z,99052.13
2023-07-06T17:28:01.010Z,99060.44
2023-07-06T17:30:27.927Z,99062.50
2023-07-06T17:32:54.594Z,99059.75
2023-07-06T17:35:21.318Z,99060.69
2023-07-06T17:37:47.847Z,99070.16
2023-07-06T17:40:14.379Z,99063.50
2023-07-06T17:42:40.870Z,99065.03
2023-07-06T17:45:07.855Z,99068.56
2023-07-06T17:47:34.487Z,99075.69
2023-07-06T17:50:01.031Z,99073.16
2023-07-06T17:52:27.638Z,99076.16
2023-07-06T17:54:54.250Z,99071.13
2023-07-06T17:57:21.305Z,99071.19
2023-07-06T17:59:47.829Z,99078.75
2023-07-06T18:02:16.278Z,99077.81
2023-07-06T18:04:45.109Z,99075.81
2023-07-06T18:07:11.673Z,99085.00
2023-07-06T18:09:38.246Z,99088.72
2023-07-06T18:12:05.093Z,99085.50
2023-07-06T18:14:32.735Z,99087.91
2023-07-06T18:17:00.973Z,99084.72
2023-07-06T18:19:29.982Z,99089.00
2023-07-06T18:21:57.921Z,99096.22
2023-07-06T18:24:25.063Z,99092.03
2023-07-06T18:26:54.924Z,99088.09
2023-07-06T18:29:21.946Z,99087.72
2023-07-06T18:31:49.082Z,99095.81
2023-07-06T18:34:16.040Z,99095.56
2023-07-06T18:36:42.599Z,99095.88
2023-07-06T18:39:09.127Z,99099.69
2023-07-06T18:41:35.676Z,99105.66
2023-07-06T18:44:05.059Z,99101.09
2023-07-06T18:46:31.684Z,99099.59
2023-07-06T18:48:58.179Z,99100.78
2023-07-06T18:51:24.905Z,99106.41
2023-07-06T18:53:51.397Z,99104.59
2023-07-06T18:56:21.034Z,99108.44
2023-07-06T18:58:47.789Z,99110.34
2023-07-06T19:01:14.436Z,99114.25
2023-07-06T19:03:42.002Z,99118.03
2023-07-06T19:06:16.894Z,99116.31
2023-07-06T19:08:46.057Z,99118.34
2023-07-06T19:11:14.822Z,99121.22
2023-07-06T19:13:42.126Z,99127.66
2023-07-06T19:16:08.947Z,99133.09
2023-07-06T19:18:35.549Z,99132.31
2023-07-06T19:21:02.132Z,99140.47
2023-07-06T19:23:30.104Z,99133.47
2023-07-06T19:25:57.231Z,99141.56
2023-07-06T19:28:24.143Z,99137.03
2023-07-06T19:30:50.659Z,99145.00
2023-07-06T19:33:17.212Z,99153.09
2023-07-06T19:35:44.279Z,99158.66
2023-07-06T19:38:11.627Z,99163.03
2023-07-06T19:40:38.153Z,99156.72
2023-07-06T19:43:04.757Z,99168.06
2023-07-06T19:45:35.453Z,99173.25
2023-07-06T19:48:02.140Z,99176.81
2023-07-06T19:50:28.725Z,99174.38
2023-07-06T19:52:55.243Z,99179.81
2023-07-06T19:55:21.716Z,99187.22
2023-07-06T19:57:48.384Z,99189.88
2023-07-06T20:00:15.726Z,99188.03
2023-07-06T20:02:43.753Z,99185.50
2023-07-06T20:05:10.417Z,99187.34
2023-07-06T20:07:37.687Z,99185.59
2023-07-06T20:10:06.397Z,99191.06
2023-07-06T20:12:33.446Z,99192.97
2023-07-06T20:15:00.092Z,99189.72
2023-07-06T20:17:26.696Z,99194.34
2023-07-06T20:19:54.605Z,99194.53
2023-07-06T20:22:21.167Z,99199.22
2023-07-06T20:24:50.112Z,99197.47
2023-07-06T20:27:16.982Z,99202.06
2023-07-06T20:29:43.496Z,99196.78
2023-07-06T20:32:12.389Z,99199.38
2023-07-06T20:34:42.526Z,99205.59
2023-07-06T20:37:09.528Z,99204.06
2023-07-06T20:39:38.937Z,99201.44
2023-07-06T20:42:06.213Z,99205.13
2023-07-06T20:44:40.214Z,99206.97
2023-07-06T20:47:07.036Z,99203.41
2023-07-06T20:49:34.271Z,99217.75
2023-07-06T20:52:02.457Z,99213.41
2023-07-06T20:54:28.990Z,99216.38
2023-07-06T20:56:55.520Z,99217.34
2023-07-06T20:59:22.108Z,99219.91
2023-07-06T21:01:48.777Z,99217.25
2023-07-06T21:04:16.992Z,99220.03
2023-07-06T21:06:44.567Z,99224.66
2023-07-06T21:09:11.441Z,99225.66
2023-07-06T21:11:39.226Z,99231.94
2023-07-06T21:14:10.241Z,99227.78
2023-07-06T21:16:43.302Z,99232.31
2023-07-06T21:19:10.561Z,99238.53
2023-07-06T21:21:37.914Z,99239.41
2023-07-06T21:24:05.874Z,99242.13
2023-07-06T21:26:34.126Z,99242.13
2023-07-06T21:29:00.670Z,99240.50
2023-07-06T21:31:27.814Z,99250.38
2023-07-06T21:33:54.756Z,99251.25
2023-07-06T21:36:21.608Z,99254.78
2023-07-06T21:38:48.532Z,99246.97
2023-07-06T21:41:16.668Z,99251.38
2023-07-06T21:43:44.286Z,99250.41
2023-07-06T21:46:10.892Z,99249.69
2023-07-06T21:48:39.019Z,99252.34
2023-07-06T21:51:07.296Z,99252.44
2023-07-06T21:53:33.968Z,99253.41
2023-07-06T21:56:01.679Z,99262.38
2023-07-06T21:58:28.934Z,99259.75
2023-07-06T22:00:57.010Z,99257.13
2023-07-06T22:03:24.276Z,99261.66
2023-07-06T22:06:04.136Z,99264.31
2023-07-06T22:08:30.871Z,99260.78
2023-07-06T22:10:58.322Z,99258.09
2023-07-06T22:13:26.102Z,99253.00
2023-07-06T22:15:55.570Z,99251.34
2023-07-06T22:18:24.021Z,99251.44
2023-07-06T22:20:51.290Z,99247.03
2023-07-06T22:23:19.182Z,99261.34
2023-07-06T22:25:46.304Z,99254.31
2023-07-06T22:28:14.542Z,99254.47
2023-07-06T22:30:43.179Z,99260.69
2023-07-06T22:33:10.476Z,99253.66
2023-07-06T22:35:37.164Z,99256.25
2023-07-06T22:38:03.784Z,99253.53
2023-07-06T22:40:32.324Z,99259.78
2023-07-06T22:43:02.342Z,99256.25
2023-07-06T22:45:29.649Z,99256.28
2023-07-06T22:47:57.665Z,99261.63
2023-07-06T22:50:27.360Z,99261.69
2023-07-06T22:52:59.867Z,99267.16
2023-07-06T22:55:27.176Z,99259.94
2023-07-06T22:57:53.999Z,99265.22
2023-07-06T23:00:20.730Z,99271.53
2023-07-06T23:02:47.405Z,99270.72
2023-07-06T23:05:14.461Z,99273.47
2023-07-06T23:07:41.559Z,99272.59
2023-07-06T23:10:08.498Z,99278.03
2023-07-06T23:12:40.313Z,99282.50
2023-07-06T23:15:09.576Z,99280.75
2023-07-06T23:17:36.103Z,99282.53
2023-07-06T23:20:05.470Z,99284.38
2023-07-06T23:22:34.362Z,99276.38
2023-07-06T23:25:05.484Z,99279.94
2023-07-06T23:27:33.137Z,99276.38
2023-07-06T23:29:59.884Z,99278.19
2023-07-06T23:32:31.302Z,99279.94
2023-07-06T23:34:58.124Z,99285.31
2023-07-06T23:37:27.200Z,99280.00
2023-07-06T23:39:55.777Z,99280.94
2023-07-06T23:42:24.371Z,99278.25
2023-07-06T23:44:51.173Z,99282.75
2023-07-06T23:47:17.754Z,99283.72
2023-07-06T23:49:44.268Z,99279.28
2023-07-06T23:52:10.903Z,99278.38
2023-07-06T23:54:37.473Z,99288.19
2023-07-06T23:57:04.328Z,99285.44
2023-07-06T23:59:30.803Z,99288.09
